KSSI/SSI METAR and TAF weather

Enter ICAO airport designator
Station Type Date Time Source
KSSI METAR 2020/04/02 00:53 UTC NOAA

KSSI 020053Z AUTO 09004KT 10SM BKN060 16/08 A2994 RMK AO2 SLP139 T01610083


Station Type Date Time Source
KSSI Decoded METAR 2020/04/02 00:53 UTC NOAA

BRUNSWICK MC KINNON AIRPORT , GA, United States (KSSI) 31-09N 081-23W 6M
Apr 01, 2020 - 08:53 PM EDT / 2020.04.02 0053 UTC
Wind: from the E (090 degrees) at 5 MPH (4 KT):0
Visibility: 10 mile(s):0
Sky conditions: mostly cloudy
Temperature: 61.0 F (16.1 C)
Dew Point: 46.9 F (8.3 C)
Relative Humidity: 59%
Pressure (altimeter): 29.94 in. Hg (1013 hPa)
ob: KSSI 020053Z AUTO 09004KT 10SM BKN060 16/08 A2994 RMK AO2 SLP139 T01610083
cycle: 1

Station Type Date Time Source
KSSI TAF 2020/04/01 18:33 UTC NOAA

TAF KSSI 011731Z 0118/0218 33010KT P6SM FEW250
FM020100 36007KT P6SM SKC
FM021600 03007KT P6SM SKC

Example: see airport list